Time;durP1;ratioP1;P1;durP2;ratioP2;P2;SDS_P1;SDS_P2;PMS_P1;PMS_P2;Temp;Humidity;BMP_temperature;BMP_pressure;BME280_temperature;BME280_humidity;BME280_pressure;Samples;Min_cycle;Max_cycle;Signal;HPM_P1;HPM_P2
2022/07/12 00:02:22;;;;;;;5.83;2.00;;;13.10;99.90;;;;;;5079593;28;20215;-65
2022/07/12 00:04:50;;;;;;;3.20;1.90;;;13.10;99.90;;;;;;5087630;28;20661;-65
2022/07/12 00:07:19;;;;;;;3.70;1.90;;;13.20;99.90;;;;;;5086035;28;20183;-66
2022/07/12 00:09:46;;;;;;;4.00;1.87;;;13.30;99.90;;;;;;5094308;28;20668;-66
2022/07/12 00:12:14;;;;;;;2.63;1.73;;;13.30;99.90;;;;;;5094844;28;20176;-66
2022/07/12 00:14:41;;;;;;;3.40;1.73;;;13.00;99.90;;;;;;5094623;28;20692;-67
2022/07/12 00:17:10;;;;;;;2.70;1.77;;;13.30;99.90;;;;;;5094560;28;20646;-67
2022/07/12 00:19:37;;;;;;;2.77;1.80;;;13.20;99.90;;;;;;5076436;28;20175;-67
2022/07/12 00:22:05;;;;;;;4.60;1.70;;;13.10;99.90;;;;;;5094628;28;20263;-67
2022/07/12 00:24:32;;;;;;;2.80;2.20;;;13.40;99.90;;;;;;5094870;28;20175;-67
2022/07/12 00:26:59;;;;;;;3.53;1.63;;;14.10;99.90;;;;;;5076235;28;20226;-67
2022/07/12 00:29:27;;;;;;;3.33;1.60;;;14.00;99.90;;;;;;5094718;28;20193;-67
2022/07/12 00:31:54;;;;;;;3.60;1.63;;;14.10;99.90;;;;;;5094368;28;20655;-67
2022/07/12 00:34:21;;;;;;;4.20;1.60;;;14.20;99.90;;;;;;5094216;28;20218;-67
2022/07/12 00:36:48;;;;;;;2.03;1.30;;;14.70;99.90;;;;;;5093314;28;20175;-67
2022/07/12 00:39:16;;;;;;;4.13;1.30;;;15.50;99.90;;;;;;5094205;28;20613;-67
2022/07/12 00:41:43;;;;;;;4.00;1.27;;;16.20;99.90;;;;;;5094175;28;20178;-67
2022/07/12 00:44:10;;;;;;;4.13;1.23;;;16.30;99.90;;;;;;5094201;28;20262;-68
2022/07/12 00:46:38;;;;;;;2.17;0.90;;;16.20;99.90;;;;;;5094285;28;20210;-67
2022/07/12 00:49:05;;;;;;;2.70;1.10;;;16.40;99.90;;;;;;5094334;28;20171;-67
2022/07/12 00:51:33;;;;;;;6.30;1.57;;;16.40;99.90;;;;;;5094223;28;20183;-67
2022/07/12 00:54:01;;;;;;;4.10;1.47;;;16.60;99.90;;;;;;5094297;28;20203;-67
2022/07/12 00:56:29;;;;;;;3.13;1.40;;;16.50;99.90;;;;;;5094013;28;20696;-68
2022/07/12 00:58:56;;;;;;;1.87;1.10;;;16.50;99.90;;;;;;5093989;28;20527;-68
2022/07/12 01:01:23;;;;;;;6.07;1.17;;;16.30;99.90;;;;;;5075712;28;20198;-67
2022/07/12 01:03:51;;;;;;;7.33;1.10;;;16.00;99.90;;;;;;5094045;28;20175;-67
2022/07/12 01:06:21;;;;;;;3.60;1.43;;;16.70;99.90;;;;;;5093985;28;20167;-67
2022/07/12 01:08:49;;;;;;;4.50;1.40;;;16.60;99.90;;;;;;5093738;28;20675;-67
2022/07/12 01:11:17;;;;;;;3.27;1.00;;;17.30;99.90;;;;;;5093715;28;20651;-66
2022/07/12 01:13:50;;;;;;;3.73;1.40;;;17.30;99.90;;;;;;5093639;28;20215;-67
2022/07/12 01:16:18;;;;;;;2.63;1.20;;;17.40;99.90;;;;;;5093775;28;20179;-67
2022/07/12 01:18:46;;;;;;;2.63;1.00;;;17.70;99.90;;;;;;5093782;28;20297;-67
2022/07/12 01:21:19;;;;;;;2.93;1.50;;;18.30;99.90;;;;;;5057439;28;20604;-66
2022/07/12 01:23:51;;;;;;;1.70;1.13;;;18.70;99.90;;;;;;5093324;28;20509;-67
2022/07/12 01:26:18;;;;;;;2.87;1.20;;;19.10;99.90;;;;;;5088409;28;20292;-66
2022/07/12 01:28:47;;;;;;;4.90;1.20;;;19.70;99.90;;;;;;5081913;28;20278;-66
2022/07/12 01:31:14;;;;;;;3.10;1.00;;;19.80;99.90;;;;;;5063586;28;20727;-65
2022/07/12 01:33:42;;;;;;;2.20;1.20;;;19.70;99.90;;;;;;5053843;28;20243;-65
2022/07/12 01:36:10;;;;;;;1.67;1.20;;;19.40;99.90;;;;;;5051740;28;20182;-66
2022/07/12 01:38:37;;;;;;;3.43;1.23;;;18.30;99.90;;;;;;5050299;28;20269;-66
2022/07/12 01:41:05;;;;;;;5.70;1.03;;;18.20;99.90;;;;;;5075007;28;20179;-66
2022/07/12 01:43:33;;;;;;;3.07;1.57;;;18.10;99.90;;;;;;5091941;28;20672;-65
2022/07/12 01:46:00;;;;;;;4.13;1.17;;;18.60;99.90;;;;;;5073878;28;20552;-65
2022/07/12 01:48:28;;;;;;;2.70;1.33;;;19.30;99.90;;;;;;5091607;28;20177;-66
2022/07/12 01:50:55;;;;;;;4.03;1.67;;;19.80;99.90;;;;;;5087968;28;20578;-65
2022/07/12 01:53:23;;;;;;;3.07;1.57;;;19.00;99.90;;;;;;5092146;28;20208;-65
2022/07/12 01:55:50;;;;;;;3.50;1.70;;;19.50;99.90;;;;;;5091933;28;20182;-65
2022/07/12 01:58:18;;;;;;;4.37;2.20;;;20.00;99.90;;;;;;5091919;28;20189;-65
2022/07/12 02:00:51;;;;;;;3.47;1.90;;;19.80;99.90;;;;;;5091746;28;20186;-65
2022/07/12 02:03:19;;;;;;;4.67;1.67;;;19.10;99.90;;;;;;5091862;28;20190;-65
2022/07/12 02:05:47;;;;;;;4.97;2.17;;;19.40;99.90;;;;;;5069552;28;20191;-65
2022/07/12 02:08:14;;;;;;;4.40;2.50;;;19.30;99.90;;;;;;5086807;28;20178;-66
2022/07/12 02:10:42;;;;;;;4.60;2.80;;;18.70;99.90;;;;;;5091779;28;20214;-66
2022/07/12 02:13:10;;;;;;;4.83;2.20;;;18.40;99.90;;;;;;5091836;28;20660;-65
2022/07/12 02:15:37;;;;;;;7.40;2.20;;;18.30;99.90;;;;;;5089657;28;20233;-67
2022/07/12 02:18:05;;;;;;;5.87;1.93;;;18.40;99.90;;;;;;5091858;28;20171;-66
2022/07/12 02:20:32;;;;;;;7.57;2.50;;;18.40;99.90;;;;;;5091091;28;20179;-66
2022/07/12 02:22:59;;;;;;;4.43;2.60;;;18.30;99.90;;;;;;5091835;28;20550;-68
2022/07/12 02:25:27;;;;;;;4.57;2.23;;;17.90;99.90;;;;;;5091956;28;20287;-67
2022/07/12 02:27:54;;;;;;;3.20;2.33;;;18.40;99.90;;;;;;5091630;28;20237;-66
2022/07/12 02:30:22;;;;;;;7.07;3.20;;;18.50;99.90;;;;;;5089854;28;20178;-67
2022/07/12 02:32:49;;;;;;;3.77;2.03;;;18.40;99.90;;;;;;5091814;28;20172;-67
2022/07/12 02:35:16;;;;;;;4.73;1.83;;;18.80;99.90;;;;;;5091737;28;20187;-67
2022/07/12 02:37:43;;;;;;;6.07;2.00;;;18.50;99.90;;;;;;5091339;28;20534;-67
2022/07/12 02:42:56;;;;;;;4.77;1.80;;;18.70;99.90;;;;;;5091812;28;20178;-65
2022/07/12 02:45:24;;;;;;;4.83;1.93;;;18.40;99.90;;;;;;5091258;28;20194;-65
2022/07/12 02:47:51;;;;;;;3.53;2.10;;;18.30;99.90;;;;;;5091615;28;20625;-66
2022/07/12 02:50:18;;;;;;;3.33;2.20;;;18.40;99.90;;;;;;5091602;28;20254;-67
2022/07/12 02:52:45;;;;;;;3.13;1.80;;;17.80;99.90;;;;;;5075350;28;20245;-65
2022/07/12 02:55:13;;;;;;;2.00;1.80;;;17.50;99.90;;;;;;5072592;28;20220;-66
2022/07/12 02:57:40;;;;;;;4.07;1.70;;;17.20;99.90;;;;;;5077570;28;20174;-66
2022/07/12 03:00:08;;;;;;;1.67;1.23;;;17.40;99.90;;;;;;5076148;28;20739;-67
2022/07/12 03:02:36;;;;;;;2.63;1.10;;;17.30;99.90;;;;;;5095064;28;20171;-67
2022/07/12 03:05:04;;;;;;;1.07;0.90;;;18.10;99.90;;;;;;5084579;28;20209;-66
2022/07/12 03:07:31;;;;;;;2.90;1.20;;;18.70;99.90;;;;;;5056627;28;20191;-67
2022/07/12 03:09:59;;;;;;;2.23;1.07;;;19.00;99.90;;;;;;5074761;28;20180;-67
2022/07/12 03:12:26;;;;;;;1.57;1.10;;;18.70;99.90;;;;;;5074635;28;20182;-67
2022/07/12 03:14:55;;;;;;;3.23;1.17;;;18.10;99.90;;;;;;5074443;28;20243;-66
2022/07/12 03:17:23;;;;;;;1.37;0.80;;;17.60;99.90;;;;;;5074111;28;20187;-67
2022/07/12 03:19:50;;;;;;;3.10;0.97;;;17.60;99.90;;;;;;5087767;28;20188;-66
2022/07/12 03:22:17;;;;;;;1.00;0.60;;;17.50;99.90;;;;;;5076118;28;20279;-66
2022/07/12 03:24:45;;;;;;;2.17;0.90;;;17.70;99.90;;;;;;5094418;28;20237;-67
2022/07/12 03:27:12;;;;;;;0.70;0.50;;;18.00;99.90;;;;;;5092655;28;20625;-66
2022/07/12 03:29:39;;;;;;;3.00;0.80;;;17.80;99.90;;;;;;5074070;28;20187;-67
2022/07/12 03:32:07;;;;;;;2.27;1.20;;;17.70;99.90;;;;;;5074399;28;20172;-67
2022/07/12 03:34:35;;;;;;;3.10;0.80;;;18.10;99.90;;;;;;5074182;28;20239;-67
2022/07/12 03:37:02;;;;;;;1.10;0.60;;;18.70;99.90;;;;;;5074276;28;20179;-67
2022/07/12 03:39:30;;;;;;;2.47;0.60;;;19.20;99.90;;;;;;5074123;28;20195;-67
2022/07/12 03:41:57;;;;;;;0.70;0.60;;;19.40;99.90;;;;;;5072806;28;20184;-67
2022/07/12 03:44:25;;;;;;;3.73;0.90;;;19.00;99.90;;;;;;5075786;28;20203;-65
2022/07/12 03:46:52;;;;;;;1.43;0.80;;;18.70;99.90;;;;;;5093184;28;20638;-67
2022/07/12 03:49:20;;;;;;;1.23;0.60;;;18.50;99.90;;;;;;5095165;28;20193;-67
2022/07/12 03:51:47;;;;;;;2.50;0.70;;;18.80;99.90;;;;;;5077742;28;20269;-66
2022/07/12 03:54:15;;;;;;;2.07;0.80;;;19.30;99.90;;;;;;5093595;28;20353;-66
2022/07/12 03:59:27;;;;;;;1.70;0.70;;;20.20;99.90;;;;;;5096077;28;20566;-67
2022/07/12 04:01:55;;;;;;;0.87;0.70;;;20.30;99.90;;;;;;5093071;28;20183;-67
2022/07/12 04:04:22;;;;;;;1.20;0.40;;;20.20;99.90;;;;;;5074948;28;20624;-67
2022/07/12 04:06:49;;;;;;;1.93;0.60;;;20.00;99.90;;;;;;5093711;28;20167;-67
2022/07/12 04:09:17;;;;;;;2.20;0.70;;;19.50;99.90;;;;;;5093602;28;20546;-68
2022/07/12 04:11:44;;;;;;;0.73;0.60;;;19.10;99.90;;;;;;5093423;28;20296;-66
2022/07/12 04:14:12;;;;;;;0.70;0.57;;;18.90;99.90;;;;;;5093211;28;20215;-66
2022/07/12 04:16:39;;;;;;;1.13;0.53;;;18.90;99.90;;;;;;5093118;28;20180;-66
2022/07/12 04:19:08;;;;;;;2.27;0.60;;;18.90;99.90;;;;;;5093659;28;20191;-66
2022/07/12 04:21:37;;;;;;;1.03;0.60;;;19.50;99.90;;;;;;5093640;28;20175;-67
2022/07/12 04:24:05;;;;;;;0.83;0.57;;;19.20;99.90;;;;;;5093142;28;20599;-67
2022/07/12 04:26:33;;;;;;;1.13;0.70;;;19.30;99.90;;;;;;5093123;28;20228;-67
2022/07/12 04:29:00;;;;;;;1.03;0.50;;;19.90;99.90;;;;;;5093149;28;20201;-67
2022/07/12 04:31:28;;;;;;;0.60;0.50;;;20.30;99.90;;;;;;5093296;28;20175;-67
2022/07/12 04:33:55;;;;;;;1.50;0.70;;;20.50;99.90;;;;;;5092858;28;20265;-67
2022/07/12 04:36:22;;;;;;;1.13;0.60;;;20.80;99.90;;;;;;5092695;28;20224;-67
2022/07/12 04:38:50;;;;;;;1.43;0.50;;;20.60;99.90;;;;;;5093228;28;20237;-67
2022/07/12 04:41:17;;;;;;;2.03;0.50;;;20.20;99.90;;;;;;5092887;28;20184;-68
2022/07/12 04:43:44;;;;;;;0.70;0.40;;;20.10;99.90;;;;;;5074556;28;20247;-67
2022/07/12 04:46:12;;;;;;;1.53;0.60;;;19.80;99.90;;;;;;5081967;28;20184;-67
2022/07/12 04:48:39;;;;;;;0.73;0.57;;;20.20;99.90;;;;;;5072713;28;20184;-68
2022/07/12 04:51:06;;;;;;;1.73;0.60;;;20.50;99.90;;;;;;5076302;28;20179;-68
2022/07/12 04:53:34;;;;;;;1.27;0.67;;;20.70;99.90;;;;;;5092644;28;20246;-67
2022/07/12 04:56:01;;;;;;;1.30;0.70;;;20.40;96.30;;;;;;5085439;28;20179;-66
2022/07/12 04:58:29;;;;;;;1.07;0.60;;;20.20;99.00;;;;;;5072526;28;20207;-68
2022/07/12 05:00:56;;;;;;;1.20;0.70;;;20.90;94.70;;;;;;5065083;28;20627;-66
2022/07/12 05:03:26;;;;;;;1.73;0.90;;;20.60;96.40;;;;;;5074198;28;20558;-68
2022/07/12 05:05:56;;;;;;;3.03;0.90;;;21.10;96.90;;;;;;5092667;28;20262;-67
2022/07/12 05:08:23;;;;;;;2.60;0.73;;;20.50;99.90;;;;;;5081060;28;20287;-67
2022/07/12 05:10:51;;;;;;;1.07;0.50;;;19.80;99.70;;;;;;5072364;28;20172;-67
2022/07/12 05:13:18;;;;;;;0.70;0.60;;;19.00;99.90;;;;;;5081881;28;20221;-67
2022/07/12 05:15:45;;;;;;;0.30;0.30;;;18.40;99.90;;;;;;5092610;28;20185;-67
2022/07/12 05:18:13;;;;;;;0.83;0.60;;;18.10;99.90;;;;;;5070206;28;20604;-67
2022/07/12 05:20:41;;;;;;;1.17;0.60;;;18.00;99.90;;;;;;5072234;28;20692;-67
2022/07/12 05:23:08;;;;;;;0.93;0.60;;;18.60;99.90;;;;;;5079457;28;20644;-67
2022/07/12 05:25:36;;;;;;;0.70;0.50;;;19.20;99.90;;;;;;5092460;28;20187;-68
2022/07/12 05:28:04;;;;;;;1.17;0.53;;;19.10;99.90;;;;;;5073766;28;20322;-68
2022/07/12 05:30:31;;;;;;;0.60;0.40;;;19.00;99.90;;;;;;5080247;28;20176;-68
2022/07/12 05:32:59;;;;;;;0.70;0.60;;;18.70;99.90;;;;;;5088059;28;20725;-68
2022/07/12 05:35:26;;;;;;;0.70;0.70;;;18.50;99.90;;;;;;5092267;28;20175;-68
2022/07/12 05:37:53;;;;;;;1.60;0.77;;;17.90;99.90;;;;;;5092149;28;20193;-67
2022/07/12 05:40:20;;;;;;;2.13;1.00;;;17.50;99.90;;;;;;5092140;28;20202;-67
2022/07/12 05:42:48;;;;;;;2.53;1.07;;;17.30;99.90;;;;;;5074084;28;20961;-67
2022/07/12 05:45:15;;;;;;;1.10;0.83;;;17.10;99.90;;;;;;5092345;28;20178;-67
2022/07/12 05:47:42;;;;;;;1.87;0.90;;;16.90;99.90;;;;;;5088690;28;20176;-68
2022/07/12 05:50:10;;;;;;;1.73;0.97;;;16.70;99.90;;;;;;5089197;28;20191;-68
2022/07/12 05:55:25;;;;;;;1.53;0.70;;;16.30;99.90;;;;;;5092824;28;20204;-68
2022/07/12 05:57:53;;;;;;;1.10;0.73;;;16.10;99.90;;;;;;5091726;28;20215;-66
2022/07/12 06:00:20;;;;;;;1.20;0.83;;;16.10;99.90;;;;;;5091809;28;20637;-68
2022/07/12 06:02:47;;;;;;;1.57;0.80;;;16.00;99.90;;;;;;5092051;28;20589;-68
2022/07/12 06:05:15;;;;;;;2.27;1.33;;;15.90;99.90;;;;;;5092167;28;20172;-68
2022/07/12 06:07:42;;;;;;;3.07;1.90;;;15.80;99.90;;;;;;5091798;28;20193;-67
2022/07/12 06:10:09;;;;;;;4.60;1.87;;;15.70;99.90;;;;;;5091363;28;20522;-68
2022/07/12 06:12:37;;;;;;;4.23;2.50;;;15.60;99.90;;;;;;5091593;28;20174;-67
2022/07/12 06:15:06;;;;;;;1.60;1.37;;;15.50;99.90;;;;;;5091545;28;20230;-68
2022/07/12 06:17:35;;;;;;;2.13;1.50;;;15.40;99.90;;;;;;5082473;28;20187;-67
2022/07/12 06:20:03;;;;;;;1.60;1.13;;;15.30;99.90;;;;;;5072415;28;20654;-67
2022/07/12 06:22:30;;;;;;;1.43;1.10;;;15.20;99.90;;;;;;5070932;28;20254;-67
2022/07/12 06:24:57;;;;;;;1.47;1.00;;;15.10;99.90;;;;;;5071488;28;20254;-67
2022/07/12 06:27:25;;;;;;;3.17;1.27;;;15.00;99.90;;;;;;5071320;28;20311;-67
2022/07/12 06:29:52;;;;;;;2.20;0.90;;;14.90;99.90;;;;;;5083522;28;20175;-68
2022/07/12 06:32:20;;;;;;;1.80;1.20;;;14.80;99.90;;;;;;5091784;28;20265;-68
2022/07/12 06:34:47;;;;;;;1.63;1.30;;;14.70;99.90;;;;;;5080044;28;20219;-66
2022/07/12 06:37:15;;;;;;;2.80;1.13;;;14.50;99.90;;;;;;5058211;28;20176;-66
2022/07/12 06:39:43;;;;;;;2.63;1.60;;;14.40;99.90;;;;;;5095537;28;20699;-68
2022/07/12 06:42:11;;;;;;;2.70;1.10;;;14.30;99.90;;;;;;5072388;28;20180;-67
2022/07/12 06:44:38;;;;;;;1.23;0.90;;;14.00;99.90;;;;;;5090930;28;20551;-68
2022/07/12 06:47:06;;;;;;;2.50;1.27;;;13.90;99.90;;;;;;5095421;28;20175;-67
2022/07/12 06:49:33;;;;;;;1.83;0.90;;;13.70;99.90;;;;;;5075591;28;20213;-66
2022/07/12 06:52:02;;;;;;;1.37;0.90;;;13.50;99.90;;;;;;5072197;28;20262;-67
2022/07/12 06:54:29;;;;;;;1.87;0.80;;;13.40;99.90;;;;;;5074561;28;20204;-67
2022/07/12 06:56:56;;;;;;;2.10;1.00;;;13.30;99.90;;;;;;5074825;28;20263;-68
2022/07/12 06:59:24;;;;;;;3.47;1.00;;;13.20;99.90;;;;;;5080522;28;20182;-68
2022/07/12 07:01:52;;;;;;;3.23;1.10;;;13.10;99.90;;;;;;5095218;28;20175;-67
2022/07/12 07:04:20;;;;;;;2.20;0.87;;;13.00;99.90;;;;;;5095093;28;20225;-67
2022/07/12 07:06:47;;;;;;;4.00;1.03;;;12.90;99.90;;;;;;5094883;28;20233;-68
2022/07/12 07:09:14;;;;;;;6.00;1.10;;;12.80;99.90;;;;;;5094814;28;20187;-67
2022/07/12 07:11:42;;;;;;;3.10;1.20;;;12.70;99.90;;;;;;5094943;28;20639;-66
2022/07/12 07:14:10;;;;;;;1.37;1.20;;;12.70;99.90;;;;;;5076641;28;20235;-66
2022/07/12 07:16:37;;;;;;;2.27;1.37;;;12.60;99.90;;;;;;5094595;28;20183;-68
2022/07/12 07:19:05;;;;;;;3.73;1.50;;;12.50;99.90;;;;;;5094913;28;20186;-68
2022/07/12 07:21:33;;;;;;;2.77;1.30;;;12.40;99.90;;;;;;5094643;28;20186;-69
2022/07/12 07:24:00;;;;;;;3.53;1.43;;;12.40;99.90;;;;;;5094532;28;20190;-67
2022/07/12 07:26:28;;;;;;;3.37;1.60;;;12.30;99.90;;;;;;5094443;28;20190;-68
2022/07/12 07:31:40;;;;;;;3.17;1.67;;;12.20;99.90;;;;;;5094604;28;20208;-67
2022/07/12 07:34:07;;;;;;;6.60;1.50;;;12.10;99.90;;;;;;5094747;28;20367;-67
2022/07/12 07:36:35;;;;;;;4.73;2.50;;;12.00;99.90;;;;;;5093994;28;20205;-66
2022/07/12 07:39:03;;;;;;;4.50;2.30;;;12.00;99.90;;;;;;5094421;28;20186;-67
2022/07/12 07:41:30;;;;;;;4.87;2.30;;;11.90;99.90;;;;;;5082860;28;20309;-67
2022/07/12 07:43:57;;;;;;;3.17;1.97;;;11.90;99.90;;;;;;5074039;28;20185;-68
2022/07/12 07:46:25;;;;;;;5.27;2.00;;;11.80;99.90;;;;;;5073401;28;20183;-68
2022/07/12 07:48:52;;;;;;;2.53;1.90;;;11.80;99.90;;;;;;5073887;28;20177;-67
2022/07/12 07:51:19;;;;;;;3.90;2.20;;;11.80;99.90;;;;;;5073952;28;20258;-68
2022/07/12 07:53:47;;;;;;;4.60;1.80;;;11.70;99.90;;;;;;5073829;28;20205;-66
2022/07/12 07:56:14;;;;;;;3.93;2.10;;;11.70;99.90;;;;;;5073972;28;20195;-66
2022/07/12 07:58:41;;;;;;;5.93;2.40;;;11.60;99.90;;;;;;5081351;28;20185;-68
2022/07/12 08:01:08;;;;;;;6.67;2.63;;;11.60;99.90;;;;;;5093594;28;20196;-67
2022/07/12 08:03:36;;;;;;;8.00;2.73;;;11.50;99.90;;;;;;5093784;28;20181;-67
2022/07/12 08:06:03;;;;;;;3.47;1.93;;;11.60;99.90;;;;;;5093866;28;20173;-67
2022/07/12 08:08:30;;;;;;;7.80;2.53;;;11.50;99.90;;;;;;5093789;28;20234;-67
2022/07/12 08:10:58;;;;;;;7.30;2.57;;;11.60;99.90;;;;;;5093060;28;20212;-67
2022/07/12 08:13:25;;;;;;;5.47;3.00;;;11.50;99.90;;;;;;5093707;28;20250;-66
2022/07/12 08:15:53;;;;;;;7.87;4.93;;;11.50;99.90;;;;;;5093556;28;20183;-68
2022/07/12 08:18:20;;;;;;;5.93;4.23;;;11.50;99.90;;;;;;5075111;28;20208;-67
2022/07/12 08:20:47;;;;;;;6.70;4.33;;;11.50;99.90;;;;;;5093293;28;20264;-67
2022/07/12 08:23:15;;;;;;;9.80;4.10;;;11.60;99.90;;;;;;5093308;28;20557;-67
2022/07/12 08:25:42;;;;;;;7.67;3.93;;;11.50;99.90;;;;;;5093069;28;20193;-68
2022/07/12 08:28:09;;;;;;;6.83;3.97;;;11.50;99.90;;;;;;5093262;28;20225;-67
2022/07/12 08:30:37;;;;;;;7.20;3.93;;;11.50;99.90;;;;;;5093154;28;20185;-68
2022/07/12 08:33:04;;;;;;;6.40;3.87;;;11.50;99.90;;;;;;5074467;28;20277;-68
2022/07/12 08:35:31;;;;;;;8.60;4.30;;;11.50;99.90;;;;;;5073228;28;20220;-68
2022/07/12 08:37:59;;;;;;;6.50;3.93;;;11.40;99.90;;;;;;5072828;28;20355;-68
2022/07/12 08:40:26;;;;;;;8.97;4.30;;;11.30;99.90;;;;;;5072860;28;20182;-68
2022/07/12 08:42:56;;;;;;;8.07;5.03;;;11.40;99.90;;;;;;5073182;28;20185;-69
2022/07/12 08:45:24;;;;;;;5.97;4.67;;;11.40;99.90;;;;;;5093253;28;20263;-67
2022/07/12 08:47:51;;;;;;;6.07;4.13;;;11.30;99.90;;;;;;5092848;28;20181;-67
2022/07/12 08:50:26;;;;;;;7.17;4.40;;;11.40;99.90;;;;;;5092906;28;20593;-68
2022/07/12 08:52:55;;;;;;;7.40;5.10;;;11.30;99.90;;;;;;5093024;28;20199;-68
2022/07/12 08:55:29;;;;;;;10.50;5.40;;;11.30;99.90;;;;;;5093036;28;20687;-68
2022/07/12 08:57:58;;;;;;;10.50;6.47;;;11.30;99.90;;;;;;5077667;28;20181;-67
2022/07/12 09:00:27;;;;;;;9.23;6.77;;;11.30;99.90;;;;;;5092788;28;20177;-68
2022/07/12 09:02:55;;;;;;;22.17;13.50;;;11.20;99.90;;;;;;5074465;28;20184;-68
2022/07/12 09:05:24;;;;;;;22.73;14.43;;;11.20;99.90;;;;;;5091215;28;20192;-67
2022/07/12 09:08:01;;;;;;;18.90;13.47;;;11.30;99.90;;;;;;5092846;28;20172;-67
2022/07/12 09:10:28;;;;;;;21.20;13.70;;;11.20;99.90;;;;;;5074501;28;20655;-67
2022/07/12 09:12:56;;;;;;;25.70;15.37;;;11.10;99.90;;;;;;5092571;28;20187;-67
2022/07/12 09:15:26;;;;;;;30.37;19.27;;;11.10;99.90;;;;;;5092214;28;20227;-67
2022/07/12 09:18:02;;;;;;;24.73;17.80;;;11.00;99.90;;;;;;5080183;28;20192;-67
2022/07/12 09:20:32;;;;;;;33.10;18.97;;;10.90;99.90;;;;;;5073940;28;20232;-68
2022/07/12 09:23:03;;;;;;;24.43;17.90;;;10.80;99.90;;;;;;5071911;28;20189;-66
2022/07/12 09:25:34;;;;;;;29.67;18.23;;;10.80;99.90;;;;;;5071978;28;20288;-67
2022/07/12 09:28:06;;;;;;;28.03;16.33;;;10.70;99.90;;;;;;5092357;28;20235;-67
2022/07/12 09:30:34;;;;;;;26.20;16.47;;;10.70;99.90;;;;;;5092394;28;20190;-66
2022/07/12 09:36:15;;;;;;;25.43;14.90;;;10.70;99.90;;;;;;5091971;28;20221;-68
2022/07/12 09:38:53;;;;;;;24.60;14.83;;;10.70;99.90;;;;;;5092448;28;20167;-67
2022/07/12 09:41:22;;;;;;;19.53;12.20;;;10.70;99.90;;;;;;5091806;28;20186;-67
2022/07/12 09:43:50;;;;;;;16.20;10.93;;;10.80;99.90;;;;;;5092359;28;20559;-68
2022/07/12 09:46:18;;;;;;;15.33;10.07;;;10.90;99.90;;;;;;5091881;28;20261;-68
2022/07/12 09:48:46;;;;;;;12.83;9.73;;;10.90;99.90;;;;;;5084007;28;20204;-67
2022/07/12 09:51:18;;;;;;;14.20;9.80;;;10.90;99.90;;;;;;5071527;28;20179;-67
2022/07/12 09:53:51;;;;;;;15.43;9.53;;;10.90;99.90;;;;;;5074233;28;20206;-67
2022/07/12 09:56:21;;;;;;;16.07;9.10;;;10.90;99.90;;;;;;5073162;28;20193;-67
2022/07/12 09:58:54;;;;;;;8.93;6.37;;;10.90;99.90;;;;;;5071486;28;20183;-66
2022/07/12 10:01:23;;;;;;;12.20;7.63;;;10.90;99.90;;;;;;5071494;28;20205;-68
2022/07/12 10:03:52;;;;;;;15.83;7.60;;;10.90;99.90;;;;;;5055976;28;20179;-68
2022/07/12 10:06:26;;;;;;;12.63;7.57;;;10.90;99.90;;;;;;5072031;28;20180;-67
2022/07/12 10:08:55;;;;;;;10.07;6.67;;;10.90;99.90;;;;;;5074174;28;20271;-67
2022/07/12 10:11:23;;;;;;;8.17;5.60;;;10.90;99.90;;;;;;5078559;28;20244;-67
2022/07/12 10:13:52;;;;;;;8.57;5.43;;;10.90;99.90;;;;;;5095958;28;20218;-67
2022/07/12 10:16:26;;;;;;;8.50;5.63;;;10.90;99.90;;;;;;5090814;28;20548;-66
2022/07/12 10:19:25;;;;;;;10.43;6.10;;;10.90;99.90;;;;;;5075290;28;20208;-67
2022/07/12 10:21:55;;;;;;;10.40;5.67;;;10.90;99.90;;;;;;5075266;28;20231;-67
2022/07/12 10:24:34;;;;;;;9.00;6.33;;;10.90;99.90;;;;;;5090078;28;20658;-69
2022/07/12 10:27:17;;;;;;;7.93;5.97;;;10.90;99.90;;;;;;5077362;28;20222;-67
2022/07/12 10:29:51;;;;;;;10.93;5.57;;;10.90;99.90;;;;;;5095887;28;20173;-66
2022/07/12 10:32:25;;;;;;;7.90;5.17;;;10.80;99.90;;;;;;5095625;28;20259;-66
2022/07/12 10:35:00;;;;;;;8.30;5.67;;;10.80;99.90;;;;;;5095088;28;20306;-67
2022/07/12 10:37:28;;;;;;;8.33;5.67;;;10.80;99.90;;;;;;5095669;28;20172;-67
2022/07/12 10:40:15;;;;;;;7.53;5.77;;;10.70;99.90;;;;;;5095539;28;20208;-66
2022/07/12 10:43:05;;;;;;;10.97;6.27;;;10.70;99.90;;;;;;5095599;28;20185;-67
2022/07/12 10:45:34;;;;;;;6.73;5.37;;;10.60;99.90;;;;;;5095291;28;20185;-67
2022/07/12 10:48:04;;;;;;;9.77;5.70;;;10.60;99.90;;;;;;5077067;28;20186;-67
2022/07/12 10:50:44;;;;;;;9.20;5.43;;;10.60;99.90;;;;;;5095253;28;20181;-68
2022/07/12 10:53:21;;;;;;;9.00;4.90;;;10.60;99.90;;;;;;5095078;28;20228;-67
2022/07/12 10:56:10;;;;;;;8.10;5.23;;;10.50;99.90;;;;;;5094982;28;20215;-67
2022/07/12 10:58:39;;;;;;;6.23;4.90;;;10.50;99.90;;;;;;5094683;28;20179;-67
2022/07/12 11:01:28;;;;;;;7.47;5.40;;;10.40;99.90;;;;;;5095111;28;20181;-67
2022/07/12 11:04:13;;;;;;;7.50;4.40;;;10.40;99.90;;;;;;5094311;28;20176;-67
2022/07/12 11:06:42;;;;;;;5.93;4.57;;;10.40;99.90;;;;;;5092618;28;20180;-67
2022/07/12 11:09:11;;;;;;;9.23;6.50;;;10.40;99.90;;;;;;5089667;28;20186;-67
2022/07/12 11:11:43;;;;;;;8.97;6.07;;;10.40;99.90;;;;;;5094998;28;20171;-66
2022/07/12 11:14:11;;;;;;;7.93;4.43;;;10.40;99.90;;;;;;5094322;28;20703;-66
2022/07/12 11:16:47;;;;;;;6.47;4.27;;;10.50;99.90;;;;;;5093772;28;20173;-67
2022/07/12 11:19:15;;;;;;;4.87;3.93;;;10.50;99.90;;;;;;5093808;28;20188;-68
2022/07/12 11:21:46;;;;;;;5.47;3.67;;;10.50;99.90;;;;;;5094330;28;20170;-68
2022/07/12 11:24:20;;;;;;;4.07;3.33;;;10.50;99.90;;;;;;5094782;28;20571;-67
2022/07/12 11:26:52;;;;;;;4.97;4.07;;;10.60;99.90;;;;;;5087960;28;20206;-67
2022/07/12 11:29:20;;;;;;;5.63;3.90;;;10.60;99.90;;;;;;5080845;28;20176;-68
2022/07/12 11:31:48;;;;;;;4.70;3.50;;;10.50;99.90;;;;;;5094648;28;20235;-67
2022/07/12 11:34:23;;;;;;;6.90;3.43;;;10.50;99.90;;;;;;5094616;28;20643;-67
2022/07/12 11:37:00;;;;;;;5.23;3.83;;;10.50;99.90;;;;;;5076316;28;20271;-67
2022/07/12 11:39:41;;;;;;;6.27;4.33;;;10.60;99.90;;;;;;5094360;28;20186;-67
2022/07/12 11:42:10;;;;;;;6.80;3.70;;;10.50;99.90;;;;;;5094376;28;20255;-68
2022/07/12 11:44:51;;;;;;;5.27;3.77;;;10.60;99.90;;;;;;5094123;28;20675;-67
2022/07/12 11:47:20;;;;;;;8.13;3.10;;;10.70;99.90;;;;;;5094327;28;20179;-67
2022/07/12 11:49:52;;;;;;;3.33;3.03;;;10.90;99.90;;;;;;5080984;28;20271;-66
2022/07/12 11:52:21;;;;;;;6.17;4.30;;;11.00;99.90;;;;;;5073432;28;20760;-67
2022/07/12 11:54:50;;;;;;;4.23;3.67;;;11.10;99.90;;;;;;5073332;28;20711;-66
2022/07/12 11:57:23;;;;;;;5.63;4.03;;;11.10;99.90;;;;;;5073393;28;20188;-67
2022/07/12 11:59:51;;;;;;;4.40;3.23;;;11.10;99.90;;;;;;5073954;28;20239;-67
2022/07/12 12:02:19;;;;;;;3.43;3.03;;;11.20;99.90;;;;;;5073797;28;20261;-68
2022/07/12 12:04:50;;;;;;;3.40;2.73;;;11.30;99.90;;;;;;5073689;28;20182;-66
2022/07/12 12:07:21;;;;;;;3.83;2.97;;;11.30;99.90;;;;;;5073770;28;20656;-66
2022/07/12 12:10:06;;;;;;;3.97;2.83;;;11.40;99.90;;;;;;5056203;28;20173;-67
2022/07/12 12:12:46;;;;;;;3.80;3.50;;;11.30;99.90;;;;;;5073406;28;20556;-66
2022/07/12 12:15:16;;;;;;;4.23;3.60;;;11.30;99.90;;;;;;5073442;28;20215;-66
2022/07/12 12:17:53;;;;;;;5.53;3.03;;;11.20;99.90;;;;;;5073411;28;20538;-67
2022/07/12 12:20:28;;;;;;;4.00;2.90;;;11.10;99.90;;;;;;5073339;28;20184;-67
2022/07/12 12:23:00;;;;;;;4.70;3.10;;;11.10;99.90;;;;;;5073420;28;20209;-67
2022/07/12 12:25:29;;;;;;;3.10;2.80;;;11.10;99.90;;;;;;5073413;28;20181;-67
2022/07/12 12:28:01;;;;;;;3.03;2.73;;;11.00;99.90;;;;;;5079188;28;20232;-66
2022/07/12 12:30:31;;;;;;;3.17;2.87;;;11.00;99.90;;;;;;5093177;28;20637;-66
2022/07/12 12:32:59;;;;;;;6.13;3.40;;;11.00;99.90;;;;;;5093042;28;20543;-66
2022/07/12 12:35:34;;;;;;;4.20;3.20;;;11.00;99.90;;;;;;5074784;28;20580;-66
2022/07/12 12:38:04;;;;;;;6.83;3.10;;;11.00;99.90;;;;;;5093107;28;20261;-65
2022/07/12 12:40:35;;;;;;;3.40;3.10;;;10.90;99.90;;;;;;5092787;28;20203;-68
2022/07/12 12:43:13;;;;;;;4.13;3.60;;;10.90;99.90;;;;;;5093324;28;20243;-67
2022/07/12 12:45:57;;;;;;;4.37;3.60;;;11.00;99.90;;;;;;5092871;28;20272;-67
2022/07/12 12:48:27;;;;;;;4.33;3.40;;;10.90;99.90;;;;;;5092619;28;20217;-66
2022/07/12 12:51:12;;;;;;;3.83;3.50;;;10.90;99.90;;;;;;5092965;28;20666;-68
2022/07/12 12:53:41;;;;;;;5.17;3.03;;;10.80;99.90;;;;;;5092924;28;20216;-67
2022/07/12 12:56:11;;;;;;;4.63;3.77;;;10.80;99.90;;;;;;5092665;28;20313;-66
2022/07/12 12:58:39;;;;;;;3.40;3.10;;;10.80;99.90;;;;;;5092434;28;20188;-66
2022/07/12 13:01:08;;;;;;;5.30;3.63;;;10.80;99.90;;;;;;5093033;28;20176;-67
2022/07/12 13:03:36;;;;;;;5.63;3.97;;;10.80;99.90;;;;;;5092523;28;20521;-67
2022/07/12 13:06:04;;;;;;;6.17;4.13;;;10.70;99.90;;;;;;5092848;28;20680;-67
2022/07/12 13:08:32;;;;;;;4.47;3.40;;;10.70;99.90;;;;;;5092589;28;20278;-67
2022/07/12 13:13:45;;;;;;;4.50;3.83;;;10.60;99.90;;;;;;5077833;28;20207;-67